createdAt,value
2019-02-08T00:00:30.098Z,17.05
2019-02-08T00:02:37.810Z,17.00
2019-02-08T00:04:44.033Z,16.67
2019-02-08T00:06:51.921Z,17.90
2019-02-08T00:08:58.884Z,18.20
2019-02-08T00:11:05.822Z,19.48
2019-02-08T00:13:11.725Z,16.60
2019-02-08T00:15:19.542Z,18.07
2019-02-08T00:17:25.644Z,16.02
2019-02-08T00:19:31.469Z,17.20
2019-02-08T00:21:38.401Z,15.58
2019-02-08T00:23:45.727Z,16.30
2019-02-08T00:25:54.758Z,15.55
2019-02-08T00:28:00.388Z,16.48
2019-02-08T00:30:11.412Z,15.00
2019-02-08T00:32:17.730Z,17.65
2019-02-08T00:34:23.246Z,16.00
2019-02-08T00:36:34.724Z,16.05
2019-02-08T00:38:40.641Z,15.53
2019-02-08T00:40:46.129Z,18.10
2019-02-08T00:42:57.658Z,16.27
2019-02-08T00:45:03.279Z,18.12
2019-02-08T00:47:10.226Z,16.40
2019-02-08T00:49:17.313Z,17.90
2019-02-08T00:51:23.183Z,15.55
2019-02-08T00:53:33.445Z,17.15
2019-02-08T00:55:40.061Z,16.65
2019-02-08T00:57:45.669Z,16.32
2019-02-08T00:59:53.266Z,15.40
2019-02-08T01:01:58.960Z,15.88
2019-02-08T01:04:05.098Z,17.05
2019-02-08T01:06:10.686Z,14.75
2019-02-08T01:08:16.870Z,15.05
2019-02-08T01:10:28.173Z,14.63
2019-02-08T01:12:34.981Z,15.43
2019-02-08T01:14:40.669Z,15.88
2019-02-08T01:16:46.159Z,15.18
2019-02-08T01:18:51.750Z,14.85
2019-02-08T01:20:57.196Z,14.55
2019-02-08T01:23:03.358Z,16.12
2019-02-08T01:25:11.912Z,16.95
2019-02-08T01:27:20.586Z,15.75
2019-02-08T01:29:26.133Z,15.68
2019-02-08T01:31:31.657Z,16.07
2019-02-08T01:33:40.106Z,16.90
2019-02-08T01:35:45.656Z,15.75
2019-02-08T01:37:52.305Z,17.35
2019-02-08T01:39:58.418Z,17.90
2019-02-08T01:42:04.141Z,16.25
2019-02-08T01:44:09.658Z,14.98
2019-02-08T01:46:15.260Z,17.55
2019-02-08T01:48:20.993Z,14.23
2019-02-08T01:50:27.869Z,16.82
2019-02-08T01:52:35.238Z,15.80
2019-02-08T01:54:40.697Z,15.23
2019-02-08T01:56:49.758Z,15.95
2019-02-08T01:58:55.276Z,15.15
2019-02-08T02:01:00.790Z,14.70
2019-02-08T02:03:07.348Z,13.60
2019-02-08T02:05:14.946Z,15.80
2019-02-08T02:07:20.542Z,15.95
2019-02-08T02:09:26.043Z,16.57
2019-02-08T02:11:31.438Z,15.35
2019-02-08T02:13:37.262Z,16.20
2019-02-08T02:15:42.773Z,14.55
2019-02-08T02:17:54.461Z,14.30
2019-02-08T02:19:59.961Z,15.15
2019-02-08T02:22:07.797Z,14.45
2019-02-08T02:24:13.832Z,12.55
2019-02-08T02:26:21.009Z,14.60
2019-02-08T02:28:27.094Z,14.40
2019-02-08T02:30:33.978Z,13.88
2019-02-08T02:32:39.513Z,13.98
2019-02-08T02:34:44.992Z,15.25
2019-02-08T02:36:52.561Z,13.85
2019-02-08T02:38:58.000Z,12.80
2019-02-08T02:41:03.436Z,11.95
2019-02-08T02:43:10.490Z,14.05
2019-02-08T02:45:21.720Z,12.90
2019-02-08T02:47:27.198Z,12.70
2019-02-08T02:49:32.665Z,14.23
2019-02-08T02:51:38.197Z,12.90
2019-02-08T02:53:43.903Z,12.70
2019-02-08T02:55:50.489Z,14.45
2019-02-08T02:57:56.176Z,15.48
2019-02-08T03:00:01.924Z,13.68
2019-02-08T03:02:07.405Z,13.18
2019-02-08T03:04:12.958Z,12.53
2019-02-08T03:06:20.883Z,12.00
2019-02-08T03:08:28.629Z,13.32
2019-02-08T03:10:34.092Z,13.15
2019-02-08T03:12:41.574Z,13.53
2019-02-08T03:14:55.914Z,12.53
2019-02-08T03:17:01.556Z,14.85
2019-02-08T03:19:07.546Z,13.88
2019-02-08T03:21:13.557Z,13.62
2019-02-08T03:23:19.069Z,12.50
2019-02-08T03:25:25.638Z,14.38
2019-02-08T03:27:33.306Z,13.50
2019-02-08T03:29:38.859Z,12.85
2019-02-08T03:31:44.274Z,11.88
2019-02-08T03:33:49.886Z,11.97
2019-02-08T03:35:56.750Z,12.58
2019-02-08T03:38:02.899Z,12.30
2019-02-08T03:40:11.741Z,11.18
2019-02-08T03:42:17.153Z,12.82
2019-02-08T03:44:24.890Z,11.68
2019-02-08T03:46:32.937Z,12.25
2019-02-08T03:48:38.381Z,12.50
2019-02-08T03:50:43.982Z,12.00
2019-02-08T03:52:52.249Z,12.65
2019-02-08T03:54:57.715Z,11.28
2019-02-08T03:57:03.325Z,12.65
2019-02-08T03:59:09.587Z,12.05
2019-02-08T04:01:15.626Z,13.25
2019-02-08T04:03:22.103Z,11.70
2019-02-08T04:05:27.867Z,11.88
2019-02-08T04:07:33.393Z,12.15
2019-02-08T04:09:38.929Z,12.00
2019-02-08T04:11:44.554Z,11.85
2019-02-08T04:13:49.979Z,9.90
2019-02-08T04:15:55.438Z,11.18
2019-02-08T04:18:03.244Z,9.83
2019-02-08T04:20:09.935Z,11.03
2019-02-08T04:22:15.721Z,11.00
2019-02-08T04:24:29.566Z,11.90
2019-02-08T04:26:28.773Z,11.20
2019-02-08T04:28:34.177Z,12.15
2019-02-08T04:30:40.337Z,11.73
2019-02-08T04:32:45.765Z,10.45
2019-02-08T04:34:52.462Z,10.08
2019-02-08T04:36:59.957Z,13.13
2019-02-08T04:39:08.249Z,11.45
2019-02-08T04:41:13.670Z,10.60
2019-02-08T04:43:25.124Z,12.10
2019-02-08T04:45:31.065Z,10.48
2019-02-08T04:47:36.853Z,9.80
2019-02-08T04:49:43.338Z,11.38
2019-02-08T04:51:49.031Z,10.93
2019-02-08T04:53:54.805Z,10.98
2019-02-08T04:56:00.278Z,11.75
2019-02-08T04:58:06.174Z,11.93
2019-02-08T05:00:18.615Z,11.10
2019-02-08T05:02:25.815Z,11.25
2019-02-08T05:04:31.313Z,11.70
2019-02-08T05:06:36.979Z,11.80
2019-02-08T05:08:42.436Z,11.48
2019-02-08T05:10:47.974Z,12.07
2019-02-08T05:12:53.900Z,11.28
2019-02-08T05:14:59.834Z,11.12
2019-02-08T05:17:06.885Z,11.45
2019-02-08T05:19:12.526Z,12.68
2019-02-08T05:21:18.268Z,11.00
2019-02-08T05:23:24.206Z,10.60
2019-02-08T05:25:30.122Z,11.73
2019-02-08T05:27:36.215Z,12.95
2019-02-08T05:29:41.721Z,10.90
2019-02-08T05:31:47.651Z,10.90
2019-02-08T05:33:53.268Z,10.43
2019-02-08T05:36:02.055Z,11.22
2019-02-08T05:38:11.178Z,10.48
2019-02-08T05:40:19.166Z,10.38
2019-02-08T05:42:26.445Z,10.00
2019-02-08T05:44:32.261Z,10.65
2019-02-08T05:46:37.769Z,10.93
2019-02-08T05:48:43.270Z,10.65
2019-02-08T05:50:48.983Z,12.93
2019-02-08T05:52:54.493Z,12.47
2019-02-08T05:55:00.273Z,10.10
2019-02-08T05:57:05.809Z,11.28
2019-02-08T05:59:11.470Z,12.13
2019-02-08T06:01:17.211Z,9.93
2019-02-08T06:03:24.183Z,11.38
2019-02-08T06:05:29.673Z,10.63
2019-02-08T06:07:35.777Z,11.57
2019-02-08T06:09:41.277Z,10.80
2019-02-08T06:11:46.910Z,13.72
2019-02-08T06:13:52.826Z,11.05
2019-02-08T06:15:58.337Z,11.35
2019-02-08T06:18:09.918Z,11.00
2019-02-08T06:20:19.931Z,11.48
2019-02-08T06:22:25.702Z,11.15
2019-02-08T06:24:31.879Z,11.00
2019-02-08T06:26:37.540Z,11.55
2019-02-08T06:28:45.140Z,10.63
2019-02-08T06:30:50.843Z,11.50
2019-02-08T06:32:56.394Z,19.85
2019-02-08T06:35:01.931Z,14.70
2019-02-08T06:37:08.133Z,20.70
2019-02-08T06:39:17.970Z,22.95
2019-02-08T06:41:23.766Z,21.23
2019-02-08T06:43:29.290Z,17.20
2019-02-08T06:45:35.426Z,16.32
2019-02-08T06:47:43.529Z,16.93
2019-02-08T06:49:50.741Z,15.43
2019-02-08T06:51:58.626Z,15.90
2019-02-08T06:54:05.192Z,16.60
2019-02-08T06:56:30.930Z,14.30
2019-02-08T06:58:51.370Z,14.75
2019-02-08T07:01:19.573Z,13.93
2019-02-08T07:03:50.130Z,14.05
2019-02-08T07:06:13.433Z,11.73
2019-02-08T07:08:23.745Z,12.05
2019-02-08T07:10:46.325Z,12.47
2019-02-08T07:13:23.377Z,13.03
2019-02-08T07:15:37.036Z,13.30
2019-02-08T07:18:15.980Z,13.70
2019-02-08T07:20:55.777Z,13.58
2019-02-08T07:23:35.253Z,13.30
2019-02-08T07:25:59.019Z,13.15
2019-02-08T07:28:26.735Z,11.60
2019-02-08T07:31:18.865Z,11.57
2019-02-08T07:33:32.130Z,11.25
2019-02-08T07:35:56.245Z,11.40
2019-02-08T07:38:23.189Z,10.65
2019-02-08T07:40:45.933Z,10.13
2019-02-08T07:43:17.245Z,10.58
2019-02-08T07:45:32.789Z,11.60
2019-02-08T07:48:09.393Z,10.78
2019-02-08T07:50:25.252Z,10.25
2019-02-08T07:52:44.994Z,10.60
2019-02-08T07:54:57.716Z,9.15
2019-02-08T07:57:21.149Z,9.78
2019-02-08T07:59:47.138Z,9.35
2019-02-08T08:02:14.458Z,9.90
2019-02-08T08:04:39.041Z,10.13
2019-02-08T08:07:18.849Z,10.20
2019-02-08T08:09:46.938Z,10.48
2019-02-08T08:12:11.360Z,8.60
2019-02-08T08:14:36.380Z,10.20
2019-02-08T08:17:00.735Z,9.50
2019-02-08T08:19:35.564Z,10.88
2019-02-08T08:22:07.062Z,10.13
2019-02-08T08:24:33.620Z,9.00
2019-02-08T08:26:54.353Z,8.58
2019-02-08T08:29:22.170Z,9.93
2019-02-08T08:31:46.045Z,9.85
2019-02-08T08:34:04.167Z,8.43
2019-02-08T08:36:51.717Z,9.63
2019-02-08T08:39:59.330Z,9.00
2019-02-08T08:42:37.021Z,9.75
2019-02-08T08:45:26.472Z,9.20
2019-02-08T08:48:09.527Z,10.58
2019-02-08T08:50:58.403Z,8.95
2019-02-08T08:53:52.957Z,10.75
2019-02-08T08:56:48.324Z,9.20
2019-02-08T08:59:32.530Z,10.25
2019-02-08T09:01:55.579Z,8.83
2019-02-08T09:04:22.888Z,10.20
2019-02-08T09:07:16.270Z,10.00
2019-02-08T09:10:16.080Z,10.88
2019-02-08T09:12:53.521Z,9.68
2019-02-08T09:15:39.374Z,10.90
2019-02-08T09:18:31.170Z,10.10
2019-02-08T09:21:13.058Z,8.83
2019-02-08T09:24:06.546Z,8.93
2019-02-08T09:26:34.550Z,7.77
2019-02-08T09:29:08.868Z,8.37
2019-02-08T09:31:55.117Z,8.40
2019-02-08T09:35:00.513Z,9.23
2019-02-08T09:37:48.481Z,9.67
2019-02-08T09:40:36.305Z,9.00
2019-02-08T09:43:17.957Z,9.67
2019-02-08T09:46:18.155Z,8.07
2019-02-08T09:48:58.061Z,9.47
2019-02-08T09:51:47.408Z,9.90
2019-02-08T09:54:35.952Z,10.63
2019-02-08T09:57:02.729Z,12.60
2019-02-08T09:59:53.733Z,13.57
2019-02-08T10:02:34.673Z,13.20
2019-02-08T10:05:39.553Z,14.47
2019-02-08T10:08:40.462Z,14.23
2019-02-08T10:11:12.448Z,13.27
2019-02-08T10:13:58.350Z,14.60
2019-02-08T10:16:47.917Z,13.13
2019-02-08T10:19:37.118Z,12.40
2019-02-08T10:22:10.094Z,14.10
2019-02-08T10:25:11.069Z,14.77
2019-02-08T10:27:51.266Z,12.80
2019-02-08T10:30:56.638Z,13.40
2019-02-08T10:34:00.997Z,14.33
2019-02-08T10:36:55.505Z,14.50
2019-02-08T10:39:38.588Z,13.60
2019-02-08T10:42:29.757Z,13.70
2019-02-08T10:45:17.429Z,13.97
2019-02-08T10:48:04.225Z,14.53
2019-02-08T10:50:48.442Z,13.80
2019-02-08T10:53:23.669Z,14.30
2019-02-08T10:56:15.073Z,15.67
2019-02-08T10:58:54.341Z,13.57
2019-02-08T11:01:41.710Z,14.20
2019-02-08T11:04:27.140Z,13.50
2019-02-08T11:07:14.385Z,11.83
2019-02-08T11:10:14.661Z,10.93
2019-02-08T11:12:55.461Z,13.63
2019-02-08T11:15:42.341Z,13.80
2019-02-08T11:18:34.090Z,13.20
2019-02-08T11:20:41.497Z,11.70
2019-02-08T11:22:47.113Z,13.37
2019-02-08T11:24:52.249Z,14.20
2019-02-08T11:27:03.800Z,13.33
2019-02-08T11:29:09.434Z,14.63
2019-02-08T11:31:14.793Z,13.17
2019-02-08T11:33:20.055Z,13.20
2019-02-08T11:35:25.693Z,15.00
2019-02-08T11:37:31.099Z,12.93
2019-02-08T11:39:36.282Z,14.10
2019-02-08T11:41:41.525Z,12.87
2019-02-08T11:43:46.701Z,14.63
2019-02-08T11:45:52.374Z,13.83
2019-02-08T11:47:57.678Z,14.20
2019-02-08T11:50:02.858Z,12.10
2019-02-08T11:52:11.026Z,12.77
2019-02-08T11:54:17.070Z,13.70
2019-02-08T11:56:29.750Z,11.40
2019-02-08T11:58:33.187Z,11.10
2019-02-08T12:00:42.149Z,12.70
2019-02-08T12:02:47.693Z,12.20
2019-02-08T12:04:56.009Z,11.60
2019-02-08T12:07:01.457Z,11.63
2019-02-08T12:09:14.746Z,10.67
2019-02-08T12:11:19.992Z,12.10
2019-02-08T12:13:25.485Z,9.60
2019-02-08T12:15:32.785Z,9.70
2019-02-08T12:17:38.084Z,9.67
2019-02-08T12:19:43.692Z,9.63
2019-02-08T12:21:49.520Z,10.20
2019-02-08T12:23:56.030Z,11.63
2019-02-08T12:26:01.640Z,12.50
2019-02-08T12:28:07.766Z,12.13
2019-02-08T12:30:19.165Z,11.53
2019-02-08T12:32:26.234Z,9.38
2019-02-08T12:34:32.302Z,11.85
2019-02-08T12:36:40.344Z,11.33
2019-02-08T12:38:46.070Z,10.75
2019-02-08T12:40:51.520Z,9.65
2019-02-08T12:42:59.038Z,6.85
2019-02-08T12:45:09.030Z,7.47
2019-02-08T12:47:14.452Z,9.75
2019-02-08T12:49:19.873Z,8.75
2019-02-08T12:51:25.329Z,8.58
2019-02-08T12:53:30.486Z,10.53
2019-02-08T12:55:36.890Z,9.43
2019-02-08T12:57:42.585Z,9.20
2019-02-08T12:59:47.908Z,7.83
2019-02-08T13:01:54.257Z,9.87
2019-02-08T13:03:59.829Z,7.80
2019-02-08T13:06:05.089Z,10.07
2019-02-08T13:08:10.724Z,7.43
2019-02-08T13:10:18.637Z,8.20
2019-02-08T13:12:24.393Z,8.27
2019-02-08T13:14:30.041Z,8.10
2019-02-08T13:16:35.165Z,8.00
2019-02-08T13:18:40.453Z,8.60
2019-02-08T13:20:46.817Z,8.53
2019-02-08T13:22:52.262Z,9.40
2019-02-08T13:24:57.564Z,8.93
2019-02-08T13:27:03.486Z,9.63
2019-02-08T13:29:08.771Z,9.37
2019-02-08T13:31:13.921Z,9.47
2019-02-08T13:33:19.725Z,8.70
2019-02-08T13:35:24.863Z,9.00
2019-02-08T13:37:31.369Z,10.03
2019-02-08T13:39:38.961Z,9.77
2019-02-08T13:41:44.266Z,9.93
2019-02-08T13:43:49.521Z,9.63
2019-02-08T13:45:55.757Z,11.90
2019-02-08T13:48:01.104Z,9.70
2019-02-08T13:50:11.969Z,11.30
2019-02-08T13:52:17.157Z,11.70
2019-02-08T13:54:22.432Z,11.30
2019-02-08T13:56:27.904Z,12.03
2019-02-08T13:58:33.317Z,11.60
2019-02-08T14:00:38.965Z,11.30
2019-02-08T14:02:44.215Z,11.70
2019-02-08T14:04:49.416Z,12.50
2019-02-08T14:06:54.640Z,11.43
2019-02-08T14:08:59.798Z,11.83
2019-02-08T14:11:05.022Z,11.83
2019-02-08T14:13:10.485Z,11.60
2019-02-08T14:15:16.994Z,11.60
2019-02-08T14:17:23.961Z,11.70
2019-02-08T14:19:29.572Z,11.45
2019-02-08T14:21:35.138Z,11.57
2019-02-08T14:23:40.777Z,10.18
2019-02-08T14:25:46.296Z,11.65
2019-02-08T14:27:51.953Z,11.48
2019-02-08T14:30:02.861Z,12.05
2019-02-08T14:32:08.547Z,11.38
2019-02-08T14:34:13.992Z,12.03
2019-02-08T14:36:26.537Z,11.95
2019-02-08T14:38:32.029Z,11.18
2019-02-08T14:40:37.549Z,10.68
2019-02-08T14:42:54.133Z,10.87
2019-02-08T14:44:59.654Z,12.27
2019-02-08T14:47:05.077Z,11.35
2019-02-08T14:49:10.589Z,11.10
2019-02-08T14:51:16.026Z,12.25
2019-02-08T14:53:21.563Z,12.05
2019-02-08T14:55:29.356Z,12.00
2019-02-08T14:57:34.782Z,11.00
2019-02-08T14:59:40.462Z,11.97
2019-02-08T15:01:46.096Z,10.60
2019-02-08T15:03:51.566Z,11.20
2019-02-08T15:05:58.130Z,12.03
2019-02-08T15:08:11.190Z,10.50
2019-02-08T15:10:22.577Z,12.03
2019-02-08T15:12:28.585Z,10.63
2019-02-08T15:14:34.006Z,11.45
2019-02-08T15:16:39.496Z,10.48
2019-02-08T15:18:45.774Z,10.50
2019-02-08T15:20:51.933Z,11.85
2019-02-08T15:22:57.445Z,11.43
2019-02-08T15:25:02.943Z,11.65
2019-02-08T15:27:14.478Z,11.22
2019-02-08T15:29:20.082Z,11.15
2019-02-08T15:31:25.581Z,11.38
2019-02-08T15:33:37.166Z,10.85
2019-02-08T15:35:43.417Z,11.35
2019-02-08T15:37:49.955Z,13.30
2019-02-08T15:40:06.611Z,11.25
2019-02-08T15:42:12.129Z,11.30
2019-02-08T15:44:17.848Z,11.40
2019-02-08T15:46:23.336Z,11.60
2019-02-08T15:48:28.842Z,12.78
2019-02-08T15:50:34.465Z,11.50
2019-02-08T15:52:49.574Z,11.60
2019-02-08T15:54:55.055Z,11.57
2019-02-08T15:59:22.547Z,13.08
2019-02-08T16:01:29.580Z,12.82
2019-02-08T16:03:34.998Z,12.88
2019-02-08T16:05:40.422Z,13.30
2019-02-08T16:07:46.029Z,13.43
2019-02-08T16:09:51.526Z,12.37
2019-02-08T16:11:56.953Z,12.70
2019-02-08T16:14:02.385Z,10.55
2019-02-08T16:16:08.545Z,12.15
2019-02-08T16:18:13.965Z,12.60
2019-02-08T16:20:21.429Z,14.13
2019-02-08T16:22:27.535Z,12.05
2019-02-08T16:24:33.134Z,11.05
2019-02-08T16:26:38.829Z,11.35
2019-02-08T16:28:44.573Z,11.80
2019-02-08T16:30:50.005Z,14.07
2019-02-08T16:32:57.291Z,12.88
2019-02-08T16:35:02.765Z,13.30
2019-02-08T16:37:08.428Z,12.68
2019-02-08T16:39:14.255Z,12.68
2019-02-08T16:41:23.649Z,10.55
2019-02-08T16:43:29.177Z,10.93
2019-02-08T16:45:40.913Z,12.98
2019-02-08T16:47:46.509Z,12.28
2019-02-08T16:49:52.054Z,12.35
2019-02-08T16:51:57.506Z,12.13
2019-02-08T16:54:02.939Z,12.58
2019-02-08T16:56:08.570Z,14.70
2019-02-08T16:58:17.237Z,12.88
2019-02-08T17:00:28.282Z,12.95
2019-02-08T17:02:33.809Z,13.15
2019-02-08T17:04:42.240Z,12.68
2019-02-08T17:06:48.345Z,12.53
2019-02-08T17:08:54.294Z,10.72
2019-02-08T17:11:05.541Z,12.60
2019-02-08T17:13:11.062Z,12.58
2019-02-08T17:15:19.695Z,12.63
2019-02-08T17:17:28.042Z,13.95
2019-02-08T17:19:33.733Z,18.35
2019-02-08T17:21:39.210Z,16.10
2019-02-08T17:23:44.943Z,14.15
2019-02-08T17:25:50.377Z,15.30
2019-02-08T17:27:57.185Z,15.30
2019-02-08T17:30:08.576Z,14.30
2019-02-08T17:32:14.732Z,14.05
2019-02-08T17:34:23.598Z,13.68
2019-02-08T17:36:30.031Z,15.55
2019-02-08T17:38:35.737Z,13.93
2019-02-08T17:40:43.817Z,15.13
2019-02-08T17:42:49.849Z,15.85
2019-02-08T17:44:56.411Z,15.53
2019-02-08T17:47:01.844Z,15.03
2019-02-08T17:49:07.262Z,15.18
2019-02-08T17:51:12.690Z,15.72
2019-02-08T17:53:18.142Z,15.48
2019-02-08T17:55:24.992Z,15.93
2019-02-08T17:57:31.653Z,18.37
2019-02-08T17:59:40.845Z,16.48
2019-02-08T18:01:46.313Z,17.62
2019-02-08T18:03:52.013Z,18.25
2019-02-08T18:06:00.714Z,16.10
2019-02-08T18:08:06.333Z,16.77
2019-02-08T18:10:15.458Z,18.25
2019-02-08T18:12:21.148Z,16.93
2019-02-08T18:14:26.690Z,16.80
2019-02-08T18:16:32.059Z,18.40
2019-02-08T18:18:37.473Z,17.67
2019-02-08T18:20:45.157Z,16.73
2019-02-08T18:22:50.961Z,16.90
2019-02-08T18:24:56.457Z,19.82
2019-02-08T18:27:01.955Z,17.67
2019-02-08T18:29:07.390Z,17.62
2019-02-08T18:31:14.077Z,18.52
2019-02-08T18:33:19.674Z,18.92
2019-02-08T18:35:25.088Z,18.50
2019-02-08T18:37:30.509Z,18.27
2019-02-08T18:39:36.113Z,20.00
2019-02-08T18:41:41.629Z,22.07
2019-02-08T18:43:47.081Z,20.43
2019-02-08T18:45:52.496Z,20.15
2019-02-08T18:47:58.477Z,19.45
2019-02-08T18:50:04.159Z,21.80
2019-02-08T18:52:09.726Z,20.43
2019-02-08T18:54:15.718Z,20.52
2019-02-08T18:56:21.423Z,21.50
2019-02-08T18:58:27.401Z,20.30
2019-02-08T19:00:40.010Z,21.17
2019-02-08T19:02:42.701Z,20.23
2019-02-08T19:04:48.524Z,18.77
2019-02-08T19:06:53.953Z,19.10
2019-02-08T19:08:59.449Z,21.48
2019-02-08T19:11:04.856Z,18.90
2019-02-08T19:13:10.270Z,18.95
2019-02-08T19:15:17.222Z,16.95
2019-02-08T19:17:22.657Z,19.60
2019-02-08T19:19:30.245Z,18.57
2019-02-08T19:21:35.655Z,18.70
2019-02-08T19:23:41.449Z,17.62
2019-02-08T19:25:47.123Z,17.85
2019-02-08T19:27:52.536Z,17.85
2019-02-08T19:29:58.986Z,20.02
2019-02-08T19:32:04.506Z,19.12
2019-02-08T19:34:10.577Z,18.60
2019-02-08T19:36:16.820Z,17.60
2019-02-08T19:38:28.218Z,19.55
2019-02-08T19:40:37.473Z,20.00
2019-02-08T19:42:46.227Z,19.05
2019-02-08T19:44:55.379Z,22.70
2019-02-08T19:47:03.904Z,21.42
2019-02-08T19:49:10.555Z,21.73
2019-02-08T19:51:18.022Z,20.75
2019-02-08T19:53:24.481Z,20.70
2019-02-08T19:55:32.290Z,19.75
2019-02-08T19:57:38.190Z,19.70
2019-02-08T19:59:43.978Z,18.55
2019-02-08T20:01:51.045Z,21.87
2019-02-08T20:04:00.199Z,21.48
2019-02-08T20:06:06.152Z,23.62
2019-02-08T20:08:13.849Z,27.27
2019-02-08T20:10:22.559Z,49.23
2019-02-08T20:12:28.189Z,26.10
2019-02-08T20:14:33.952Z,23.38
2019-02-08T20:16:41.266Z,26.70
2019-02-08T20:18:46.950Z,33.95
2019-02-08T20:20:53.151Z,25.12
2019-02-08T20:22:58.960Z,28.62
2019-02-08T20:25:07.093Z,28.92
2019-02-08T20:27:15.383Z,31.73
2019-02-08T20:29:23.616Z,33.65
2019-02-08T20:31:29.327Z,29.20
2019-02-08T20:33:34.766Z,28.07
2019-02-08T20:35:40.651Z,28.75
2019-02-08T20:37:47.941Z,29.15
2019-02-08T20:39:54.468Z,24.70
2019-02-08T20:42:01.716Z,25.77
2019-02-08T20:44:14.831Z,24.27
2019-02-08T20:46:21.333Z,23.32
2019-02-08T20:48:27.136Z,23.02
2019-02-08T20:50:36.646Z,24.15
2019-02-08T20:52:46.074Z,26.25
2019-02-08T20:54:54.302Z,32.78
2019-02-08T20:57:01.033Z,29.48
2019-02-08T20:59:06.889Z,30.62
2019-02-08T21:01:22.001Z,24.98
2019-02-08T21:03:28.113Z,22.80
2019-02-08T21:05:34.029Z,21.15
2019-02-08T21:07:47.653Z,25.62
2019-02-08T21:09:53.686Z,22.05
2019-02-08T21:12:03.531Z,22.05
2019-02-08T21:14:09.366Z,22.73
2019-02-08T21:16:18.498Z,21.65
2019-02-08T21:18:24.576Z,21.48
2019-02-08T21:20:33.477Z,20.62
2019-02-08T21:22:39.607Z,20.90
2019-02-08T21:24:45.132Z,21.77
2019-02-08T21:26:54.364Z,22.35
2019-02-08T21:28:59.693Z,20.57
2019-02-08T21:31:05.359Z,21.77
2019-02-08T21:33:14.690Z,21.55
2019-02-08T21:35:20.381Z,20.92
2019-02-08T21:37:25.976Z,21.05
2019-02-08T21:39:34.124Z,20.00
2019-02-08T21:41:43.927Z,20.37
2019-02-08T21:43:50.067Z,19.45
2019-02-08T21:45:58.741Z,21.30
2019-02-08T21:48:06.710Z,20.52
2019-02-08T21:50:14.042Z,19.98
2019-02-08T21:52:27.407Z,20.62
2019-02-08T21:54:33.718Z,19.70
2019-02-08T21:56:39.115Z,20.00
2019-02-08T21:58:44.705Z,21.10
2019-02-08T22:00:50.831Z,20.72
2019-02-08T22:02:57.168Z,20.23
2019-02-08T22:05:10.792Z,20.20
2019-02-08T22:07:16.307Z,21.65
2019-02-08T22:09:21.718Z,21.02
2019-02-08T22:11:28.674Z,19.55
2019-02-08T22:13:34.090Z,20.65
2019-02-08T22:15:39.698Z,21.70
2019-02-08T22:17:45.117Z,22.25
2019-02-08T22:19:50.783Z,21.62
2019-02-08T22:21:56.274Z,22.02
2019-02-08T22:24:02.817Z,21.33
2019-02-08T22:26:08.559Z,20.23
2019-02-08T22:28:14.310Z,19.55
2019-02-08T22:30:26.117Z,18.80
2019-02-08T22:32:32.737Z,17.73
2019-02-08T22:34:38.241Z,17.48
2019-02-08T22:36:43.813Z,18.32
2019-02-08T22:38:49.230Z,16.50
2019-02-08T22:40:55.052Z,14.45
2019-02-08T22:43:01.929Z,15.93
2019-02-08T22:45:12.125Z,17.80
2019-02-08T22:47:17.572Z,17.05
2019-02-08T22:49:24.765Z,18.42
2019-02-08T22:51:30.208Z,16.07
2019-02-08T22:53:35.972Z,17.60
2019-02-08T22:55:43.263Z,16.10
2019-02-08T22:57:48.836Z,13.83
2019-02-08T22:59:54.262Z,14.83
2019-02-08T23:01:59.897Z,15.58
2019-02-08T23:04:07.077Z,15.55
2019-02-08T23:06:13.585Z,13.35
2019-02-08T23:08:21.047Z,13.88
2019-02-08T23:10:26.717Z,14.00
2019-02-08T23:12:32.442Z,13.50
2019-02-08T23:14:37.910Z,13.28
2019-02-08T23:16:43.752Z,14.30
2019-02-08T23:18:49.185Z,15.50
2019-02-08T23:20:56.889Z,14.25
2019-02-08T23:23:02.479Z,12.78
2019-02-08T23:25:08.309Z,13.28
2019-02-08T23:27:14.110Z,15.58
2019-02-08T23:29:19.681Z,13.95
2019-02-08T23:31:25.645Z,14.98
2019-02-08T23:33:31.333Z,14.30
2019-02-08T23:35:42.834Z,12.68
2019-02-08T23:37:44.386Z,15.10
2019-02-08T23:39:49.817Z,14.20
2019-02-08T23:41:55.269Z,15.53
2019-02-08T23:44:01.486Z,14.30
2019-02-08T23:46:09.511Z,14.38
2019-02-08T23:48:15.625Z,15.43
2019-02-08T23:50:21.053Z,13.00
2019-02-08T23:52:26.741Z,15.10
2019-02-08T23:54:32.689Z,14.90
2019-02-08T23:56:38.686Z,15.55
2019-02-08T23:58:44.894Z,14.85
